Time;durP1;ratioP1;P1;durP2;ratioP2;P2;SDS_P1;SDS_P2;PMS_P1;PMS_P2;Temp;Humidity;BMP_temperature;BMP_pressure;BME280_temperature;BME280_humidity;BME280_pressure;Samples;Min_cycle;Max_cycle;Signal;HPM_P1;HPM_P2
2022/08/22 00:01:48;;;;;;;6.83;3.13;;;14.60;99.90;;;;;;5022674;28;20958;-64
2022/08/22 00:04:40;;;;;;;5.70;3.50;;;14.60;99.90;;;;;;5021946;28;20434;-63
2022/08/22 00:07:05;;;;;;;3.70;3.40;;;14.60;99.90;;;;;;5023428;28;20438;-64
2022/08/22 00:09:47;;;;;;;5.63;3.80;;;14.50;99.90;;;;;;5026810;28;20431;-64
2022/08/22 00:12:33;;;;;;;4.33;3.30;;;14.50;99.90;;;;;;5027796;28;20234;-63
2022/08/22 00:15:30;;;;;;;4.93;3.60;;;14.50;99.90;;;;;;5020506;28;20427;-62
2022/08/22 00:18:23;;;;;;;6.80;4.17;;;14.50;99.90;;;;;;5022580;28;20500;-63
2022/08/22 00:21:11;;;;;;;8.13;4.17;;;14.50;99.90;;;;;;5009689;28;20404;-63
2022/08/22 00:24:01;;;;;;;6.93;4.83;;;14.40;99.90;;;;;;5022253;28;20998;-64
2022/08/22 00:26:52;;;;;;;9.43;3.60;;;14.50;99.90;;;;;;5026830;28;20539;-63
2022/08/22 00:29:27;;;;;;;5.23;3.77;;;14.40;99.90;;;;;;5009735;28;20392;-64
2022/08/22 00:32:14;;;;;;;3.97;3.60;;;14.40;99.90;;;;;;5017282;28;20997;-64
2022/08/22 00:34:56;;;;;;;4.97;3.67;;;14.40;99.90;;;;;;5024616;28;20939;-63
2022/08/22 00:37:34;;;;;;;7.37;3.90;;;14.40;99.90;;;;;;5022768;28;20746;-64
2022/08/22 00:40:07;;;;;;;4.83;4.20;;;14.40;99.90;;;;;;5015858;28;20447;-64
2022/08/22 00:42:38;;;;;;;10.13;4.60;;;14.40;99.90;;;;;;5023253;28;20410;-63
2022/08/22 00:45:45;;;;;;;7.23;3.60;;;14.40;99.90;;;;;;5027072;28;20423;-64
2022/08/22 00:48:22;;;;;;;4.60;3.97;;;14.30;99.90;;;;;;5015504;28;20549;-64
2022/08/22 00:51:21;;;;;;;5.43;4.10;;;14.30;99.90;;;;;;5022729;28;20437;-63
2022/08/22 00:53:59;;;;;;;6.30;4.00;;;14.30;99.90;;;;;;5026675;28;20544;-63
2022/08/22 00:56:47;;;;;;;4.03;3.57;;;14.20;99.90;;;;;;5021714;28;20474;-63
2022/08/22 00:59:41;;;;;;;7.93;3.90;;;14.20;99.90;;;;;;5026657;28;20457;-63
2022/08/22 01:02:26;;;;;;;5.17;3.63;;;14.20;99.90;;;;;;5018251;28;20438;-63
2022/08/22 01:05:20;;;;;;;9.50;3.73;;;14.20;99.90;;;;;;5018960;28;20426;-64
2022/08/22 01:08:08;;;;;;;8.80;3.40;;;14.20;99.90;;;;;;5020170;28;20437;-64
2022/08/22 01:11:06;;;;;;;5.70;3.53;;;14.20;99.90;;;;;;5028355;28;20403;-64
2022/08/22 01:13:53;;;;;;;6.03;4.40;;;14.10;99.90;;;;;;5020405;28;20497;-65
2022/08/22 01:16:53;;;;;;;5.40;3.80;;;14.10;99.90;;;;;;5021090;28;20473;-64
2022/08/22 01:19:47;;;;;;;8.03;3.60;;;14.10;99.90;;;;;;5025070;28;20441;-64
2022/08/22 01:22:40;;;;;;;6.13;4.47;;;14.10;99.90;;;;;;5028142;28;20414;-63
2022/08/22 01:25:18;;;;;;;7.23;4.47;;;14.00;99.90;;;;;;5013237;28;20462;-64
2022/08/22 01:27:49;;;;;;;5.03;3.93;;;14.00;99.90;;;;;;5028781;28;20481;-64
2022/08/22 01:30:18;;;;;;;6.63;4.07;;;14.00;99.90;;;;;;5028363;28;20418;-64
2022/08/22 01:33:02;;;;;;;5.10;4.20;;;14.00;99.90;;;;;;5027248;28;20931;-64
2022/08/22 01:35:46;;;;;;;5.83;3.80;;;13.90;99.90;;;;;;5021158;28;20435;-64
2022/08/22 01:38:54;;;;;;;6.47;3.83;;;14.00;99.90;;;;;;5026677;28;20449;-64
2022/08/22 01:41:54;;;;;;;5.77;3.97;;;13.90;99.90;;;;;;5027255;28;20445;-64
2022/08/22 01:44:45;;;;;;;8.17;4.13;;;13.90;99.90;;;;;;5021695;28;20474;-65
2022/08/22 01:47:14;;;;;;;5.17;3.70;;;13.80;99.90;;;;;;5024812;28;20433;-64
2022/08/22 01:49:45;;;;;;;8.30;3.83;;;13.80;99.90;;;;;;5028164;28;20448;-64
2022/08/22 01:52:28;;;;;;;7.27;4.30;;;13.80;99.90;;;;;;5028703;28;20514;-63
2022/08/22 01:54:59;;;;;;;5.40;3.50;;;13.80;99.90;;;;;;5027747;28;20422;-64
2022/08/22 01:57:26;;;;;;;7.50;4.60;;;13.80;99.90;;;;;;5027746;28;20468;-62
2022/08/22 01:59:56;;;;;;;4.83;3.90;;;13.70;99.90;;;;;;5024930;28;20927;-64
2022/08/22 02:03:03;;;;;;;4.80;3.97;;;13.70;99.90;;;;;;5029510;28;20510;-63
2022/08/22 02:05:58;;;;;;;7.90;3.77;;;13.70;99.90;;;;;;5015743;28;21098;-63
2022/08/22 02:08:38;;;;;;;7.50;4.37;;;13.70;99.90;;;;;;5028397;28;20437;-64
2022/08/22 02:11:30;;;;;;;11.73;4.27;;;13.70;99.90;;;;;;5029876;28;20433;-63
2022/08/22 02:14:12;;;;;;;9.70;4.57;;;13.70;99.90;;;;;;5013199;28;20408;-63
2022/08/22 02:16:41;;;;;;;5.00;4.27;;;13.70;99.90;;;;;;5018247;28;20458;-64
2022/08/22 02:19:13;;;;;;;4.73;3.60;;;13.70;99.90;;;;;;5031460;28;20399;-63
2022/08/22 02:21:57;;;;;;;4.10;3.70;;;13.70;99.90;;;;;;5029941;28;20477;-64
2022/08/22 02:24:32;;;;;;;4.80;4.10;;;13.60;99.90;;;;;;5028654;28;20430;-63
2022/08/22 02:27:26;;;;;;;9.27;4.20;;;13.60;99.90;;;;;;5022027;28;20446;-62
2022/08/22 02:30:02;;;;;;;6.23;3.57;;;13.60;99.90;;;;;;5029741;28;20433;-64
2022/08/22 02:32:36;;;;;;;10.70;4.67;;;13.60;99.90;;;;;;5016513;28;20434;-63
2022/08/22 02:35:31;;;;;;;5.67;4.20;;;13.60;99.90;;;;;;5028895;28;20500;-63
2022/08/22 02:38:24;;;;;;;5.33;3.70;;;13.60;99.90;;;;;;5024270;28;20481;-64
2022/08/22 02:41:13;;;;;;;6.90;3.83;;;13.60;99.90;;;;;;5012317;28;20427;-64
2022/08/22 02:43:51;;;;;;;7.43;4.00;;;13.60;99.90;;;;;;5030164;28;20430;-64
2022/08/22 02:46:28;;;;;;;4.00;3.60;;;13.60;99.90;;;;;;5027455;28;20449;-64
2022/08/22 02:49:07;;;;;;;6.40;4.60;;;13.60;99.90;;;;;;5018774;28;20420;-63
2022/08/22 02:52:05;;;;;;;6.60;4.03;;;13.60;99.90;;;;;;5015666;28;20470;-63
2022/08/22 02:54:55;;;;;;;5.57;4.27;;;13.60;99.90;;;;;;5028399;28;20434;-64
2022/08/22 02:57:43;;;;;;;11.93;4.13;;;13.60;99.90;;;;;;5027886;28;20546;-64
2022/08/22 03:00:21;;;;;;;7.27;4.50;;;13.50;99.90;;;;;;5025932;28;20419;-64
2022/08/22 03:03:16;;;;;;;6.47;4.57;;;13.50;99.90;;;;;;5028398;28;21131;-64
2022/08/22 03:05:47;;;;;;;7.70;4.27;;;13.50;99.90;;;;;;5023732;28;20461;-64
2022/08/22 03:08:21;;;;;;;8.47;3.60;;;13.50;99.90;;;;;;5026144;28;20436;-63
2022/08/22 03:11:16;;;;;;;6.23;4.13;;;13.40;99.90;;;;;;5030117;28;20513;-63
2022/08/22 03:14:17;;;;;;;6.60;4.50;;;13.40;99.90;;;;;;5029382;28;20414;-64
2022/08/22 03:16:59;;;;;;;7.40;4.07;;;13.40;99.90;;;;;;5018217;28;20545;-64
2022/08/22 03:19:55;;;;;;;7.40;4.30;;;13.40;99.90;;;;;;5018051;28;20445;-64
2022/08/22 03:22:28;;;;;;;5.67;3.80;;;13.30;99.90;;;;;;5013985;28;20434;-64
2022/08/22 03:25:06;;;;;;;8.93;4.20;;;13.30;99.90;;;;;;5007928;28;20505;-62
2022/08/22 03:28:04;;;;;;;5.43;4.20;;;13.30;99.90;;;;;;5016472;28;21001;-63
2022/08/22 03:30:35;;;;;;;5.93;4.60;;;13.30;99.90;;;;;;5016686;28;20993;-64
2022/08/22 03:33:18;;;;;;;5.60;4.47;;;13.20;99.90;;;;;;5013439;28;20476;-65
2022/08/22 03:35:43;;;;;;;5.30;3.50;;;13.20;99.90;;;;;;5014245;28;21984;-64
2022/08/22 03:38:43;;;;;;;5.80;4.80;;;13.10;99.90;;;;;;5028636;28;20438;-64
2022/08/22 03:41:41;;;;;;;4.30;3.87;;;13.10;99.90;;;;;;5028133;28;20180;-64
2022/08/22 03:44:13;;;;;;;6.60;4.13;;;13.10;99.90;;;;;;5024690;28;20430;-64
2022/08/22 03:46:51;;;;;;;5.83;4.30;;;13.10;99.90;;;;;;5023013;28;20479;-64
2022/08/22 03:49:35;;;;;;;9.83;4.47;;;13.00;99.90;;;;;;5019031;28;20439;-63
2022/08/22 03:53:07;;;;;;;6.17;4.47;;;13.00;99.90;;;;;;5022481;28;20521;-64
2022/08/22 03:55:51;;;;;;;6.40;5.00;;;13.00;99.90;;;;;;5017943;28;20434;-64
2022/08/22 03:58:45;;;;;;;6.80;4.03;;;13.00;99.90;;;;;;5018389;28;20426;-64
2022/08/22 04:01:48;;;;;;;8.43;4.40;;;13.00;99.90;;;;;;5018215;28;20868;-64
2022/08/22 04:04:51;;;;;;;5.33;4.13;;;13.00;99.90;;;;;;5023949;28;20449;-63
2022/08/22 04:07:26;;;;;;;8.10;4.80;;;13.00;99.90;;;;;;5025163;28;20434;-63
2022/08/22 04:10:24;;;;;;;6.27;4.57;;;12.90;99.90;;;;;;5027873;28;20406;-63
2022/08/22 04:13:23;;;;;;;6.23;4.43;;;12.90;99.90;;;;;;5030186;28;20426;-63
2022/08/22 04:16:34;;;;;;;4.43;3.80;;;12.80;99.90;;;;;;5017533;28;20970;-63
2022/08/22 04:19:44;;;;;;;6.90;4.47;;;12.80;99.90;;;;;;5035589;28;21026;-64
2022/08/22 04:22:29;;;;;;;4.50;4.10;;;12.80;99.90;;;;;;5025410;28;20443;-64
2022/08/22 04:25:17;;;;;;;8.00;4.93;;;12.80;99.90;;;;;;5023225;28;20419;-64
2022/08/22 04:27:56;;;;;;;5.93;4.10;;;12.80;99.90;;;;;;5021024;28;20415;-63
2022/08/22 04:30:32;;;;;;;6.80;4.70;;;12.70;99.90;;;;;;5028777;28;20402;-63
2022/08/22 04:33:27;;;;;;;8.57;4.00;;;12.70;99.90;;;;;;5027458;28;20441;-63
2022/08/22 04:36:06;;;;;;;10.93;4.57;;;12.70;99.90;;;;;;5025239;28;20665;-64
2022/08/22 04:38:32;;;;;;;5.53;4.17;;;12.70;99.90;;;;;;5029595;28;20414;-64
2022/08/22 04:41:12;;;;;;;8.30;4.60;;;12.70;99.90;;;;;;5013235;28;20427;-63
2022/08/22 04:43:54;;;;;;;11.70;5.07;;;12.70;99.90;;;;;;5012316;28;20686;-63
2022/08/22 04:46:38;;;;;;;5.93;4.30;;;12.70;99.90;;;;;;5027759;28;20466;-63
2022/08/22 04:49:08;;;;;;;5.03;4.43;;;12.70;99.90;;;;;;5018465;28;20463;-63
2022/08/22 04:51:37;;;;;;;7.90;4.60;;;12.60;99.90;;;;;;5026115;28;20465;-62
2022/08/22 04:54:17;;;;;;;7.90;4.40;;;12.60;99.90;;;;;;5028091;28;20851;-64
2022/08/22 04:57:09;;;;;;;9.90;4.57;;;12.60;99.90;;;;;;5027273;28;20468;-64
2022/08/22 04:59:35;;;;;;;6.30;4.87;;;12.60;99.90;;;;;;5025540;28;20422;-64
2022/08/22 05:02:06;;;;;;;5.80;4.20;;;12.60;99.90;;;;;;5023019;28;20433;-64
2022/08/22 05:04:42;;;;;;;9.83;4.60;;;12.50;99.90;;;;;;5019772;28;20219;-64
2022/08/22 05:07:24;;;;;;;7.30;5.00;;;12.60;99.90;;;;;;5021990;28;20937;-64
2022/08/22 05:09:57;;;;;;;4.80;4.40;;;12.60;99.90;;;;;;5027623;28;20932;-64
2022/08/22 05:12:32;;;;;;;7.40;5.13;;;12.60;99.90;;;;;;5032305;28;20422;-64
2022/08/22 05:15:12;;;;;;;10.80;4.60;;;12.70;99.90;;;;;;5031207;28;20414;-64
2022/08/22 05:17:39;;;;;;;6.63;4.63;;;12.70;99.90;;;;;;5023326;28;20520;-65
2022/08/22 05:20:10;;;;;;;4.93;4.47;;;12.70;99.90;;;;;;5032074;28;20921;-64
2022/08/22 05:22:47;;;;;;;13.27;6.20;;;12.80;99.90;;;;;;5031514;28;20466;-65
2022/08/22 05:25:20;;;;;;;8.07;6.20;;;12.90;99.90;;;;;;5028765;28;20460;-64
2022/08/22 05:27:49;;;;;;;8.53;6.20;;;12.90;99.90;;;;;;5020594;28;20443;-64
2022/08/22 05:30:23;;;;;;;9.00;6.10;;;13.00;99.90;;;;;;5014579;28;20431;-65
2022/08/22 05:33:00;;;;;;;9.87;5.50;;;13.10;99.90;;;;;;5021990;28;20520;-65
2022/08/22 05:35:36;;;;;;;6.77;4.30;;;13.20;99.90;;;;;;5029307;28;20476;-65
2022/08/22 05:38:05;;;;;;;10.50;5.00;;;13.20;99.90;;;;;;5032398;28;20570;-64
2022/08/22 05:40:33;;;;;;;6.47;4.70;;;13.30;99.90;;;;;;5016427;28;20419;-65
2022/08/22 05:42:59;;;;;;;7.47;5.47;;;13.40;99.90;;;;;;5031994;28;20414;-65
2022/08/22 05:45:27;;;;;;;6.90;4.57;;;13.50;99.90;;;;;;5028663;28;20481;-65
2022/08/22 05:48:08;;;;;;;6.77;5.00;;;13.50;99.90;;;;;;5027626;28;20430;-64
2022/08/22 05:51:10;;;;;;;7.23;4.70;;;13.60;99.90;;;;;;5029653;28;20426;-65
2022/08/22 05:53:40;;;;;;;7.47;5.20;;;13.70;99.90;;;;;;5029268;28;20449;-64
2022/08/22 05:56:14;;;;;;;9.23;5.63;;;13.70;99.90;;;;;;5011709;28;21141;-65
2022/08/22 05:58:54;;;;;;;7.30;4.07;;;13.80;99.90;;;;;;5022454;28;20473;-65
2022/08/22 06:01:30;;;;;;;8.77;5.43;;;13.80;99.90;;;;;;5028885;28;20433;-65
2022/08/22 06:04:05;;;;;;;7.03;5.30;;;13.90;99.90;;;;;;5023294;28;20536;-64
2022/08/22 06:06:45;;;;;;;16.17;4.67;;;14.00;99.90;;;;;;5030179;28;20838;-65
2022/08/22 06:09:21;;;;;;;7.67;4.90;;;14.00;99.90;;;;;;5019994;28;20872;-65
2022/08/22 06:12:12;;;;;;;8.20;4.77;;;14.00;99.90;;;;;;5030490;28;20444;-64
2022/08/22 06:14:44;;;;;;;5.00;4.50;;;14.10;99.90;;;;;;5029102;28;20450;-64
2022/08/22 06:17:14;;;;;;;5.20;4.30;;;14.10;99.90;;;;;;5030109;28;20462;-64
2022/08/22 06:19:44;;;;;;;6.20;4.30;;;14.20;99.90;;;;;;5020837;28;20442;-65
2022/08/22 06:22:13;;;;;;;5.57;4.50;;;14.20;99.90;;;;;;5024923;28;20414;-64
2022/08/22 06:24:39;;;;;;;8.60;4.50;;;14.30;99.90;;;;;;5028795;28;20411;-64
2022/08/22 06:27:11;;;;;;;4.73;4.27;;;14.40;99.90;;;;;;5031639;28;20434;-64
2022/08/22 06:30:13;;;;;;;6.90;4.30;;;14.50;99.90;;;;;;5029587;28;20434;-63
2022/08/22 06:32:43;;;;;;;9.17;4.50;;;14.60;99.90;;;;;;5018772;28;20427;-64
2022/08/22 06:35:26;;;;;;;8.00;4.67;;;14.70;99.90;;;;;;5029632;28;20903;-64
2022/08/22 06:37:58;;;;;;;5.30;3.70;;;14.80;99.90;;;;;;5030458;28;20470;-64
2022/08/22 06:40:26;;;;;;;9.00;4.23;;;14.90;99.90;;;;;;5030005;28;20426;-64
2022/08/22 06:42:53;;;;;;;7.17;4.30;;;14.90;99.90;;;;;;5029587;28;20502;-64
2022/08/22 06:45:29;;;;;;;8.43;4.43;;;15.00;99.90;;;;;;5028400;28;20479;-65
2022/08/22 06:48:04;;;;;;;8.93;3.97;;;15.10;99.90;;;;;;5027389;28;20500;-64
2022/08/22 06:50:34;;;;;;;6.63;4.80;;;15.10;99.90;;;;;;5031191;28;20564;-65
2022/08/22 06:53:09;;;;;;;4.93;4.17;;;15.30;99.90;;;;;;5031344;28;20445;-65
2022/08/22 06:55:39;;;;;;;7.30;4.20;;;15.30;99.90;;;;;;5026520;28;20462;-64
2022/08/22 06:58:12;;;;;;;10.80;5.80;;;15.40;99.90;;;;;;5031225;28;20482;-64
2022/08/22 07:00:41;;;;;;;8.33;5.20;;;15.50;99.90;;;;;;5020193;28;20970;-64
2022/08/22 07:03:16;;;;;;;7.43;4.70;;;15.60;99.90;;;;;;5024131;28;21141;-64
2022/08/22 07:05:42;;;;;;;9.13;4.20;;;15.70;99.90;;;;;;5023735;28;20442;-63
2022/08/22 07:08:19;;;;;;;13.50;4.60;;;15.80;99.90;;;;;;5027707;28;20434;-65
2022/08/22 07:10:54;;;;;;;7.97;3.70;;;15.90;99.90;;;;;;5028979;28;20410;-64
2022/08/22 07:13:21;;;;;;;9.83;4.10;;;16.00;99.90;;;;;;5031229;28;20410;-65
2022/08/22 07:15:55;;;;;;;7.20;5.20;;;16.10;99.90;;;;;;5026843;28;20457;-65
2022/08/22 07:18:24;;;;;;;9.23;5.27;;;16.20;99.90;;;;;;5026538;28;20823;-64
2022/08/22 07:20:53;;;;;;;5.60;4.00;;;16.30;99.90;;;;;;5021650;28;20434;-65
2022/08/22 07:23:39;;;;;;;11.43;4.43;;;16.40;99.90;;;;;;5024141;28;20513;-65
2022/08/22 07:26:35;;;;;;;7.80;5.00;;;16.50;99.90;;;;;;5012942;28;20586;-64
2022/08/22 07:29:19;;;;;;;5.97;5.00;;;16.60;99.90;;;;;;5021256;28;20443;-64
2022/08/22 07:31:57;;;;;;;8.83;4.80;;;16.70;99.90;;;;;;5012391;28;20427;-64
2022/08/22 07:35:00;;;;;;;5.40;4.33;;;16.90;99.90;;;;;;5012261;28;20438;-64
2022/08/22 07:37:56;;;;;;;9.27;4.93;;;17.00;99.90;;;;;;5018069;28;20457;-64
2022/08/22 07:40:32;;;;;;;5.70;3.90;;;17.20;99.90;;;;;;5022113;28;20444;-64
2022/08/22 07:43:01;;;;;;;10.60;4.77;;;17.30;99.90;;;;;;5023528;28;20501;-64
2022/08/22 07:45:37;;;;;;;5.50;4.90;;;17.40;99.90;;;;;;5016817;28;20580;-62
2022/08/22 07:48:24;;;;;;;7.37;5.00;;;17.60;99.90;;;;;;5017091;28;20861;-64
2022/08/22 07:50:59;;;;;;;7.50;4.73;;;17.70;99.90;;;;;;5013677;28;20516;-65
2022/08/22 07:53:57;;;;;;;7.43;4.80;;;17.80;96.60;;;;;;5018454;28;20470;-63
2022/08/22 07:56:50;;;;;;;6.53;4.37;;;17.90;96.10;;;;;;5017802;28;20470;-65
2022/08/22 07:59:18;;;;;;;5.70;4.63;;;18.10;96.00;;;;;;5018168;28;20461;-63
2022/08/22 08:01:52;;;;;;;7.33;4.57;;;18.20;96.90;;;;;;5019494;28;20947;-63
2022/08/22 08:04:25;;;;;;;8.50;4.93;;;18.40;95.10;;;;;;5017126;28;20458;-64
2022/08/22 08:06:54;;;;;;;5.83;4.20;;;18.50;94.10;;;;;;5020495;28;20461;-64
2022/08/22 08:09:20;;;;;;;5.50;4.10;;;18.60;94.10;;;;;;5013105;28;20431;-64
2022/08/22 08:11:50;;;;;;;7.03;4.30;;;18.70;92.70;;;;;;5021074;28;20442;-65
2022/08/22 08:14:16;;;;;;;6.60;4.10;;;18.80;93.30;;;;;;5015987;28;20789;-64
2022/08/22 08:17:02;;;;;;;8.07;3.97;;;18.90;90.60;;;;;;5022979;28;20469;-65
2022/08/22 08:19:29;;;;;;;12.17;4.27;;;19.00;90.80;;;;;;5015372;28;20449;-65
2022/08/22 08:21:56;;;;;;;4.67;3.47;;;19.10;90.70;;;;;;5019965;28;20445;-64
2022/08/22 08:24:30;;;;;;;7.73;3.73;;;19.30;87.10;;;;;;5012701;28;20435;-64
2022/08/22 08:30:20;;;;;;;8.10;4.77;;;19.50;76.50;;;;;;5015844;28;20812;-63
2022/08/22 08:32:53;;;;;;;8.27;3.87;;;19.60;74.20;;;;;;5016517;28;20438;-65
2022/08/22 08:35:26;;;;;;;9.13;3.93;;;19.80;74.50;;;;;;5019520;28;20494;-63
2022/08/22 08:38:11;;;;;;;5.40;4.00;;;19.90;75.90;;;;;;5016791;28;20474;-64
2022/08/22 08:41:00;;;;;;;8.70;4.50;;;20.00;73.70;;;;;;5017764;28;20936;-62
2022/08/22 08:43:47;;;;;;;11.03;4.00;;;20.10;73.20;;;;;;5015312;28;20426;-62
2022/08/22 08:46:16;;;;;;;6.87;4.23;;;20.20;71.90;;;;;;5017760;28;20556;-63
2022/08/22 08:48:56;;;;;;;7.10;4.20;;;20.30;71.50;;;;;;5017029;28;20432;-63
2022/08/22 08:51:51;;;;;;;7.60;4.20;;;20.40;70.10;;;;;;5020026;28;21337;-64
2022/08/22 08:54:42;;;;;;;7.77;4.30;;;20.50;70.80;;;;;;5017011;28;21014;-63
2022/08/22 08:57:39;;;;;;;5.07;3.67;;;20.70;70.90;;;;;;5017502;28;20576;-63
2022/08/22 09:00:19;;;;;;;9.43;4.30;;;20.90;70.50;;;;;;5021240;28;20480;-63
2022/08/22 09:03:13;;;;;;;4.70;3.90;;;21.00;68.20;;;;;;5020475;28;20513;-63
2022/08/22 09:06:21;;;;;;;5.70;3.50;;;21.10;65.60;;;;;;5015115;28;20455;-64
2022/08/22 09:09:09;;;;;;;4.93;4.00;;;21.20;66.10;;;;;;5017801;28;20955;-63
2022/08/22 09:12:02;;;;;;;4.77;3.70;;;21.10;65.30;;;;;;5017440;28;20472;-64
2022/08/22 09:14:57;;;;;;;6.23;3.30;;;20.90;65.10;;;;;;5020926;28;20452;-63
2022/08/22 09:17:49;;;;;;;6.30;3.30;;;21.00;60.80;;;;;;5019198;28;20458;-63
2022/08/22 09:20:15;;;;;;;6.60;3.50;;;21.00;59.70;;;;;;5013054;28;20430;-62
2022/08/22 09:23:02;;;;;;;10.93;3.80;;;21.00;60.80;;;;;;5018400;28;20940;-64
2022/08/22 09:26:01;;;;;;;8.80;3.60;;;20.90;61.30;;;;;;5019515;28;20733;-62
2022/08/22 09:28:38;;;;;;;7.90;4.00;;;20.80;62.40;;;;;;5015728;28;20435;-63
2022/08/22 09:31:26;;;;;;;7.10;4.10;;;20.70;62.80;;;;;;5017973;28;20951;-65
2022/08/22 09:34:11;;;;;;;8.87;3.47;;;20.70;63.60;;;;;;5017209;28;20441;-62
2022/08/22 09:37:00;;;;;;;6.50;3.87;;;20.70;64.00;;;;;;5024004;28;21044;-63
2022/08/22 09:40:04;;;;;;;7.23;4.00;;;20.70;64.20;;;;;;5016688;28;20438;-63
2022/08/22 09:42:50;;;;;;;7.70;3.37;;;20.70;64.90;;;;;;5022014;28;20477;-64
2022/08/22 09:45:49;;;;;;;7.93;3.90;;;20.70;64.90;;;;;;5018738;28;20542;-63
2022/08/22 09:48:27;;;;;;;7.80;3.97;;;20.60;64.70;;;;;;5022139;28;20876;-64
2022/08/22 09:51:13;;;;;;;5.33;3.60;;;20.60;63.70;;;;;;5018354;28;20923;-63
2022/08/22 09:54:01;;;;;;;7.27;3.80;;;20.50;63.70;;;;;;5009050;28;20951;-64
2022/08/22 09:56:53;;;;;;;4.67;3.23;;;20.50;65.00;;;;;;5011395;28;20478;-65
2022/08/22 09:59:37;;;;;;;6.30;3.10;;;20.50;65.30;;;;;;5011664;28;20431;-62
2022/08/22 10:02:29;;;;;;;6.60;3.93;;;20.70;61.10;;;;;;5018055;28;20454;-64
2022/08/22 10:05:35;;;;;;;8.90;3.70;;;21.10;59.40;;;;;;5020364;28;20508;-64
2022/08/22 10:08:07;;;;;;;4.70;3.67;;;21.50;59.60;;;;;;5014644;28;20434;-64
2022/08/22 10:10:53;;;;;;;4.90;3.37;;;22.00;58.50;;;;;;5022026;28;20514;-65
2022/08/22 10:13:47;;;;;;;5.93;3.10;;;22.40;57.20;;;;;;5016923;28;20423;-65
2022/08/22 10:16:36;;;;;;;5.43;3.50;;;22.70;55.70;;;;;;5016797;28;20485;-65
2022/08/22 10:19:44;;;;;;;6.80;3.37;;;23.00;54.20;;;;;;5013283;28;20446;-64
2022/08/22 10:22:21;;;;;;;4.47;3.40;;;23.20;54.30;;;;;;5017854;28;20481;-65
2022/08/22 10:24:47;;;;;;;4.00;3.03;;;23.50;54.10;;;;;;5011448;28;20572;-64
2022/08/22 10:27:24;;;;;;;3.80;3.50;;;23.60;53.80;;;;;;5012695;28;20450;-65
2022/08/22 10:30:06;;;;;;;3.73;3.30;;;23.90;52.10;;;;;;5013383;28;20207;-64
2022/08/22 10:32:42;;;;;;;5.30;3.43;;;24.10;52.00;;;;;;5014896;28;22027;-64
2022/08/22 10:35:29;;;;;;;4.93;3.33;;;24.20;49.70;;;;;;5014916;28;20450;-65
2022/08/22 10:38:14;;;;;;;6.80;3.27;;;24.30;49.50;;;;;;5016299;28;20472;-66
2022/08/22 10:41:09;;;;;;;13.30;3.40;;;24.40;48.70;;;;;;5025930;28;20519;-66
2022/08/22 10:43:46;;;;;;;6.70;3.23;;;24.60;49.40;;;;;;5021882;28;20488;-65
2022/08/22 10:46:16;;;;;;;4.87;3.03;;;24.70;47.30;;;;;;5013376;28;20657;-65
2022/08/22 10:49:00;;;;;;;6.37;2.97;;;24.80;48.40;;;;;;5015768;28;20971;-65
2022/08/22 10:51:50;;;;;;;5.40;3.27;;;24.90;46.80;;;;;;5004246;28;21989;-63
2022/08/22 10:54:41;;;;;;;6.27;3.77;;;25.00;46.40;;;;;;5015681;28;21153;-64
2022/08/22 10:57:35;;;;;;;6.67;3.80;;;25.20;47.50;;;;;;5008407;28;20471;-65
2022/08/22 11:00:17;;;;;;;6.53;3.17;;;25.40;48.00;;;;;;5014426;28;20461;-63
2022/08/22 11:03:01;;;;;;;4.60;3.17;;;25.60;46.90;;;;;;5018044;28;21298;-64
2022/08/22 11:05:42;;;;;;;6.87;3.47;;;25.50;45.40;;;;;;5015544;28;20484;-63
2022/08/22 11:08:13;;;;;;;6.10;2.87;;;25.30;46.40;;;;;;5021640;28;20489;-55
2022/08/22 11:10:57;;;;;;;4.50;3.03;;;25.30;47.30;;;;;;5017049;28;20445;-63
2022/08/22 11:13:31;;;;;;;6.40;3.67;;;25.40;47.70;;;;;;5022857;28;20512;-61
2022/08/22 11:16:25;;;;;;;5.60;3.70;;;25.60;45.90;;;;;;5010393;28;20537;-62
2022/08/22 11:19:13;;;;;;;5.53;3.37;;;25.70;43.30;;;;;;5017062;28;20439;-63
2022/08/22 11:21:49;;;;;;;4.53;3.40;;;25.80;43.00;;;;;;5016950;28;20429;-64
2022/08/22 11:24:53;;;;;;;5.83;3.90;;;25.70;45.20;;;;;;5015736;28;20441;-65
2022/08/22 11:27:37;;;;;;;4.13;3.40;;;25.40;45.40;;;;;;5011920;28;20469;-64
2022/08/22 11:30:16;;;;;;;4.67;3.23;;;25.20;46.30;;;;;;5016364;28;20427;-64
2022/08/22 11:32:58;;;;;;;6.87;3.37;;;25.10;46.80;;;;;;5020117;28;20433;-62
2022/08/22 11:35:30;;;;;;;4.00;3.10;;;25.10;47.10;;;;;;5020878;28;20478;-63
2022/08/22 11:38:30;;;;;;;5.60;3.60;;;25.10;47.20;;;;;;5019555;28;20471;-64
2022/08/22 11:41:03;;;;;;;6.40;3.43;;;25.10;46.20;;;;;;5015718;28;20457;-63
2022/08/22 11:43:49;;;;;;;4.97;2.80;;;25.10;46.80;;;;;;5016401;28;21116;-64
2022/08/22 11:46:26;;;;;;;3.97;2.90;;;25.30;47.40;;;;;;5005537;28;20979;-63
2022/08/22 11:49:24;;;;;;;5.00;3.40;;;25.70;47.60;;;;;;5017830;28;20430;-63
2022/08/22 11:52:13;;;;;;;5.73;3.27;;;26.20;47.20;;;;;;5016160;28;20881;-62
2022/08/22 11:55:14;;;;;;;4.03;3.10;;;26.60;46.40;;;;;;5009122;28;20448;-64
2022/08/22 11:57:53;;;;;;;6.17;3.60;;;26.60;45.80;;;;;;5011870;28;20479;-63
2022/08/22 12:00:23;;;;;;;4.37;3.20;;;26.30;44.70;;;;;;5012823;28;21046;-65
2022/08/22 12:03:20;;;;;;;5.27;3.50;;;26.00;45.60;;;;;;5017718;28;20430;-61
2022/08/22 12:05:58;;;;;;;9.27;3.10;;;25.70;46.00;;;;;;5013426;28;20465;-57
2022/08/22 12:08:34;;;;;;;7.40;3.27;;;25.50;46.10;;;;;;5012337;28;20480;-56
2022/08/22 12:11:18;;;;;;;7.00;3.20;;;25.40;46.50;;;;;;5009587;28;20480;-58
2022/08/22 12:14:06;;;;;;;6.77;3.87;;;25.70;46.60;;;;;;5010353;28;20476;-57
2022/08/22 12:17:09;;;;;;;6.03;3.60;;;25.90;45.20;;;;;;5012069;28;20528;-56
2022/08/22 12:19:58;;;;;;;8.70;3.27;;;26.20;44.90;;;;;;5011324;28;20433;-55
2022/08/22 12:22:59;;;;;;;4.57;2.83;;;26.70;45.50;;;;;;5018372;28;20430;-59
2022/08/22 12:26:05;;;;;;;4.10;3.33;;;27.00;44.60;;;;;;5013049;28;20485;-59
2022/08/22 12:28:54;;;;;;;3.43;3.10;;;26.70;44.40;;;;;;5012294;28;20458;-57
2022/08/22 12:32:01;;;;;;;5.93;3.13;;;26.30;44.30;;;;;;5013561;28;21083;-59
2022/08/22 12:34:59;;;;;;;5.37;3.00;;;25.80;46.30;;;;;;5008905;28;20512;-58
2022/08/22 12:37:28;;;;;;;5.13;3.53;;;25.40;47.60;;;;;;5011067;28;20489;-57
2022/08/22 12:40:18;;;;;;;6.03;3.20;;;25.10;47.70;;;;;;5011584;28;20426;-58
2022/08/22 12:42:44;;;;;;;7.10;3.60;;;25.00;49.00;;;;;;5013387;28;20442;-58
2022/08/22 12:45:42;;;;;;;7.53;3.80;;;24.80;49.40;;;;;;5020054;28;20910;-56
2022/08/22 12:48:32;;;;;;;4.50;3.57;;;24.60;49.20;;;;;;5016429;28;20196;-57
2022/08/22 12:51:29;;;;;;;4.17;3.30;;;24.40;49.40;;;;;;5017632;28;20465;-58
2022/08/22 12:54:19;;;;;;;5.40;3.40;;;24.20;49.80;;;;;;5011591;28;20422;-57
2022/08/22 12:56:48;;;;;;;4.90;3.60;;;24.00;49.30;;;;;;5010281;28;20468;-54
2022/08/22 12:59:30;;;;;;;6.30;3.27;;;23.80;50.10;;;;;;5010084;28;20467;-63
2022/08/22 13:02:00;;;;;;;4.33;3.57;;;23.80;50.40;;;;;;5034837;28;20434;-61
2022/08/22 13:04:30;;;;;;;7.03;3.97;;;24.10;47.40;;;;;;5019046;28;20438;-63
2022/08/22 13:07:08;;;;;;;6.40;3.30;;;24.70;48.30;;;;;;5018483;28;20504;-64
2022/08/22 13:09:38;;;;;;;5.60;3.63;;;25.40;47.70;;;;;;5014956;28;21170;-62
2022/08/22 13:12:29;;;;;;;5.13;3.30;;;26.20;47.20;;;;;;5005438;28;21244;-54
2022/08/22 13:15:13;;;;;;;9.30;3.33;;;26.80;45.00;;;;;;5006363;28;20492;-56
2022/08/22 13:17:43;;;;;;;5.70;3.20;;;27.40;43.90;;;;;;5012325;28;20454;-60
2022/08/22 13:20:31;;;;;;;3.77;2.90;;;27.90;44.20;;;;;;5017376;28;20518;-60
2022/08/22 13:23:00;;;;;;;5.30;3.53;;;28.30;43.30;;;;;;5012497;28;20430;-61
2022/08/22 13:25:28;;;;;;;5.30;3.30;;;28.60;41.30;;;;;;5015846;28;20296;-60
2022/08/22 13:28:01;;;;;;;5.00;3.07;;;28.80;39.20;;;;;;5020916;28;20564;-60
2022/08/22 13:30:34;;;;;;;4.87;3.00;;;28.80;40.20;;;;;;5018832;28;20652;-60
2022/08/22 13:33:20;;;;;;;5.43;3.23;;;29.00;40.80;;;;;;5014715;28;20211;-60
2022/08/22 13:35:55;;;;;;;4.43;3.67;;;29.20;41.30;;;;;;5018579;28;20213;-60
2022/08/22 13:38:32;;;;;;;4.43;3.30;;;29.50;40.50;;;;;;5014008;28;20207;-59
2022/08/22 13:41:00;;;;;;;5.75;3.08;;;29.50;39.20;;;;;;5017810;28;20185;-61
2022/08/22 13:43:30;;;;;;;6.63;3.63;;;29.20;39.10;;;;;;5022646;28;20172;-60
2022/08/22 13:46:03;;;;;;;5.35;2.97;;;28.90;40.80;;;;;;5016416;28;20199;-59
2022/08/22 13:48:49;;;;;;;5.70;3.63;;;28.90;40.60;;;;;;5017748;28;20198;-59
2022/08/22 13:51:25;;;;;;;5.95;3.65;;;29.10;39.60;;;;;;5013363;28;20202;-60
2022/08/22 13:53:56;;;;;;;4.78;3.15;;;29.20;38.30;;;;;;5012622;28;20175;-61
2022/08/22 13:56:30;;;;;;;3.83;2.88;;;29.40;39.40;;;;;;5012194;28;20199;-60
2022/08/22 13:59:02;;;;;;;3.42;2.90;;;29.70;39.70;;;;;;5017034;28;20187;-61
2022/08/22 14:01:54;;;;;;;2.97;2.67;;;30.00;39.90;;;;;;5015821;28;20657;-61
2022/08/22 14:04:28;;;;;;;6.90;3.22;;;30.30;38.50;;;;;;5019420;28;20191;-61
2022/08/22 14:07:25;;;;;;;4.32;3.50;;;30.40;38.10;;;;;;5020908;28;20198;-61